createdAt,value
2022-12-25T00:05:17.133Z,6.5499
2022-12-25T00:10:42.986Z,6.5499
2022-12-25T00:15:56.310Z,6.5499
2022-12-25T00:21:15.857Z,0
2022-12-25T00:31:53.686Z,6.5499
2022-12-25T00:37:12.910Z,6.5499
2022-12-25T00:42:31.879Z,6.5499
2022-12-25T00:47:51.533Z,6.5499
2022-12-25T00:58:30.139Z,6.5499
2022-12-25T01:03:49.866Z,6.5499
2022-12-25T01:09:09.062Z,6.5499
2022-12-25T01:14:28.790Z,6.5499
2022-12-25T01:19:48.165Z,6.5499
2022-12-25T01:25:06.932Z,0
2022-12-25T01:30:26.042Z,0
2022-12-25T01:41:04.555Z,0
2022-12-25T01:46:24.245Z,0
2022-12-25T01:57:03.006Z,0
2022-12-25T02:02:22.770Z,0
2022-12-25T02:07:42.196Z,0
2022-12-25T02:18:19.346Z,0
2022-12-25T02:23:39.014Z,0
2022-12-25T02:28:58.045Z,0
2022-12-25T02:39:36.314Z,0
2022-12-25T02:44:55.122Z,0
2022-12-25T02:50:14.726Z,0
2022-12-25T02:55:34.198Z,0
2022-12-25T03:06:13.825Z,0
2022-12-25T03:11:32.753Z,0
2022-12-25T03:16:51.876Z,0
2022-12-25T03:22:11.209Z,0
2022-12-25T03:27:30.842Z,0
2022-12-25T03:32:50.204Z,0
2022-12-25T03:38:09.012Z,0
2022-12-25T03:43:27.162Z,0
2022-12-25T03:48:46.753Z,0
2022-12-25T03:54:06.279Z,0
2022-12-25T04:04:44.290Z,0
2022-12-25T04:10:03.957Z,0
2022-12-25T04:15:23.091Z,0
2022-12-25T04:20:41.957Z,0
2022-12-25T04:26:00.403Z,0
2022-12-25T04:31:19.763Z,0
2022-12-25T04:36:38.683Z,0
2022-12-25T04:47:17.635Z,0
2022-12-25T04:52:36.714Z,0
2022-12-25T05:03:16.070Z,0
2022-12-25T05:08:35.610Z,0
2022-12-25T05:13:55.299Z,0
2022-12-25T05:19:14.253Z,0
2022-12-25T05:24:33.960Z,0
2022-12-25T05:29:53.175Z,0
2022-12-25T05:35:12.031Z,0
2022-12-25T05:45:51.207Z,0
2022-12-25T05:51:10.841Z,0
2022-12-25T05:56:30.176Z,0
2022-12-25T06:01:48.962Z,0
2022-12-25T06:07:07.834Z,0
2022-12-25T06:12:26.788Z,0
2022-12-25T06:17:47.341Z,0
2022-12-25T06:28:24.758Z,0
2022-12-25T06:33:45.012Z,0
2022-12-25T06:44:22.487Z,0
2022-12-25T06:49:41.768Z,0
2022-12-25T06:55:01.452Z,0
2022-12-25T07:00:20.937Z,0.0006
2022-12-25T07:05:40.344Z,0.0042
2022-12-25T07:10:59.558Z,0.0084
2022-12-25T07:21:38.477Z,0.0247
2022-12-25T07:26:57.816Z,0.0322
2022-12-25T07:32:17.275Z,0.0365
2022-12-25T07:37:36.954Z,0.0417
2022-12-25T07:42:56.380Z,0.0475
2022-12-25T07:48:16.767Z,0.042
2022-12-25T07:53:34.606Z,0.0454
2022-12-25T08:04:13.220Z,0.0533
2022-12-25T08:09:32.344Z,0.0664
2022-12-25T08:14:51.337Z,0.0693
2022-12-25T08:20:10.327Z,0.0762
2022-12-25T08:25:29.412Z,0.0873
2022-12-25T08:30:48.316Z,0.0992
2022-12-25T08:36:08.041Z,0.1016
2022-12-25T08:46:47.101Z,0.1444
2022-12-25T08:52:06.337Z,0.1234
2022-12-25T08:57:25.302Z,0.0878
2022-12-25T09:02:45.057Z,0.1184
2022-12-25T09:08:03.765Z,0.1116
2022-12-25T09:13:24.077Z,0.1304
2022-12-25T09:18:43.346Z,0.1795
2022-12-25T09:24:02.340Z,0.1496
2022-12-25T09:29:21.793Z,0.1278
2022-12-25T09:34:41.135Z,0.1166
2022-12-25T09:45:17.955Z,0.2326
2022-12-25T09:50:37.201Z,0.3696
2022-12-25T09:55:56.481Z,0.2709
2022-12-25T10:01:15.679Z,0.3747
2022-12-25T10:06:34.317Z,0.2684
2022-12-25T10:11:53.276Z,0.2475
2022-12-25T10:17:12.762Z,0.2551
2022-12-25T10:22:32.273Z,0.2319
2022-12-25T10:27:51.151Z,0.1892
2022-12-25T10:33:13.657Z,0.1926
2022-12-25T10:38:29.092Z,0.2156
2022-12-25T10:43:48.136Z,0.2512
2022-12-25T10:49:07.214Z,0.2923
2022-12-25T10:54:26.677Z,0.2366
2022-12-25T10:59:45.486Z,0.2789
2022-12-25T11:10:24.387Z,0.1788
2022-12-25T11:15:43.384Z,0.2604
2022-12-25T11:21:11.537Z,0.2944
2022-12-25T11:26:22.159Z,0.2192
2022-12-25T11:31:41.280Z,0.1493
2022-12-25T11:37:01.100Z,0.1923
2022-12-25T11:42:20.449Z,0.1896
2022-12-25T11:52:58.220Z,0.2707
2022-12-25T11:58:17.670Z,0.2641
2022-12-25T12:08:55.719Z,0.2077
2022-12-25T12:14:15.404Z,0.2768
2022-12-25T12:19:35.107Z,0.2418
2022-12-25T12:24:54.723Z,0.228
2022-12-25T12:31:28.961Z,0.1844
2022-12-25T12:35:32.419Z,0.1641
2022-12-25T12:40:51.704Z,0.1741
2022-12-25T12:46:10.538Z,0.1331
2022-12-25T12:51:29.948Z,0.1542
2022-12-25T12:56:49.006Z,0.2724
2022-12-25T13:02:08.200Z,0.3195
2022-12-25T13:07:27.612Z,0.2957
2022-12-25T13:12:56.883Z,0.2836
2022-12-25T13:18:05.724Z,0.2806
2022-12-25T13:23:25.317Z,0.2518
2022-12-25T13:34:04.292Z,0.1829
2022-12-25T13:39:23.577Z,0.1398
2022-12-25T13:44:43.136Z,0.1302
2022-12-25T13:50:02.747Z,0.1334
2022-12-25T13:55:21.451Z,0.1384
2022-12-25T14:00:40.656Z,0.1011
2022-12-25T14:06:00.312Z,0.1245
2022-12-25T14:11:19.419Z,0.1096
2022-12-25T14:16:38.224Z,0.1065
2022-12-25T14:21:57.351Z,0.075
2022-12-25T14:27:16.359Z,0.0643
2022-12-25T14:32:35.657Z,0.0572
2022-12-25T14:37:54.523Z,0.0494
2022-12-25T14:43:13.922Z,0.0465
2022-12-25T14:48:32.718Z,0.0426
2022-12-25T14:53:53.008Z,0.0407
2022-12-25T14:59:12.518Z,0.0378
2022-12-25T15:09:59.551Z,0.0312
2022-12-25T15:15:09.936Z,0.0219
2022-12-25T15:20:28.861Z,0.0167
2022-12-25T15:25:47.915Z,0.0155
2022-12-25T15:31:06.747Z,0.0125
2022-12-25T15:42:20.193Z,0.0006
2022-12-25T15:47:39.368Z,0
2022-12-25T15:58:18.076Z,0
2022-12-25T16:03:37.282Z,0
2022-12-25T16:08:57.006Z,0
2022-12-25T16:14:15.882Z,0
2022-12-25T16:19:34.418Z,0
2022-12-25T16:24:53.715Z,0
2022-12-25T16:30:12.866Z,0
2022-12-25T16:35:32.507Z,0
2022-12-25T16:40:51.229Z,0
2022-12-25T16:46:10.832Z,0
2022-12-25T16:51:30.055Z,0
2022-12-25T16:56:49.632Z,0
2022-12-25T17:07:28.291Z,0
2022-12-25T17:12:47.207Z,0
2022-12-25T17:23:25.976Z,0
2022-12-25T17:28:45.792Z,0
2022-12-25T17:34:05.162Z,0
2022-12-25T17:39:24.497Z,0
2022-12-25T17:44:44.213Z,0
2022-12-25T17:50:03.103Z,0
2022-12-25T17:55:21.887Z,0
2022-12-25T18:05:59.296Z,0
2022-12-25T18:11:18.760Z,0
2022-12-25T18:16:37.672Z,0
2022-12-25T18:21:56.816Z,0
2022-12-25T18:27:15.640Z,0
2022-12-25T18:32:34.860Z,0
2022-12-25T18:37:54.262Z,0
2022-12-25T18:43:13.926Z,0
2022-12-25T18:48:32.572Z,0
2022-12-25T18:53:51.963Z,0
2022-12-25T19:04:30.838Z,0
2022-12-25T19:09:49.785Z,0
2022-12-25T19:15:09.346Z,0
2022-12-25T19:20:28.867Z,0
2022-12-25T19:25:48.094Z,0
2022-12-25T19:31:07.235Z,0
2022-12-25T19:36:26.925Z,0
2022-12-25T19:41:45.653Z,0
2022-12-25T19:47:04.663Z,0
2022-12-25T19:52:24.018Z,0
2022-12-25T19:57:42.933Z,0
2022-12-25T20:03:02.238Z,0
2022-12-25T20:08:21.316Z,0
2022-12-25T20:13:40.572Z,0
2022-12-25T20:18:59.969Z,0
2022-12-25T20:29:37.574Z,0
2022-12-25T20:34:56.661Z,0
2022-12-25T20:45:35.843Z,0
2022-12-25T20:50:54.417Z,0
2022-12-25T20:56:14.051Z,0
2022-12-25T21:06:53.294Z,0
2022-12-25T21:12:12.885Z,0
2022-12-25T21:17:31.975Z,0
2022-12-25T21:22:51.219Z,0
2022-12-25T21:28:10.196Z,0
2022-12-25T21:33:29.834Z,0
2022-12-25T21:38:48.787Z,0
2022-12-25T21:44:08.196Z,0
2022-12-25T21:49:27.895Z,0
2022-12-25T21:54:46.781Z,0
2022-12-25T22:00:05.637Z,0
2022-12-25T22:05:25.022Z,0
2022-12-25T22:10:44.749Z,0
2022-12-25T22:16:03.625Z,0
2022-12-25T22:21:22.860Z,0
2022-12-25T22:26:42.277Z,0
2022-12-25T22:32:02.251Z,0
2022-12-25T22:37:21.528Z,0
2022-12-25T22:47:59.823Z,0
2022-12-25T22:53:19.169Z,0
2022-12-25T22:58:38.767Z,0
2022-12-25T23:03:57.778Z,0
2022-12-25T23:09:22.224Z,0
2022-12-25T23:14:36.347Z,0
2022-12-25T23:19:54.730Z,0
2022-12-25T23:30:33.017Z,0
2022-12-25T23:35:52.566Z,0
2022-12-25T23:46:31.282Z,0
2022-12-25T23:51:50.961Z,0
2022-12-25T23:57:10.589Z,0
